Disclaimer

Please do not use the information listed here in-flight or in-navigation, as they are not provided to us by the airports but are provided by volunteers, so they might be outdated.

Search


Regions


Airport information page

Radio informations:
Tower (TWR) - 124.3 MHz
Approach (APP) - 118.3 MHz
A/G - 5493 MHz

Airport informations:
Latitude: 04° 48' 57.70" S
Longitude: 011° 53' 11.75" E
Elevation: 55 feet - 17 meters
Operating hours: 24 hour operations
Operating agency: Civil government, landing fees and diplomatic clearance may be required
Timezone: UTC+1
Fuel: Jet A1, without icing nhibitor.

100/130 MIL Spec, low lead, aviation gasoline (BLUE)

Runway information:
17/35 - 8530 x 148 feet< - >2600 x 45 meters

Recent METARs:
FCPP 131400Z 22011KT 190V260 9999 SCT016 SCT030 29/26 Q1006 NOSIG
FCPP 131400Z 22011KT 190V260 9999 SCT016 SCT030 29/26 Q1006 NOSIG
FCPP 131500Z 22010KT 9999 SCT015 30/26 Q1006 NOSIG

Airport on the map: